sensor_id;sensor_type;location;lat;lon;timestamp;P1;durP1;ratioP1;P2;durP2;ratioP2
69900;SDS011;57183;50.930;5.406;2023-02-15T06:07:42;40.63;;;21.00;;
69900;SDS011;57183;50.930;5.406;2023-02-15T09:22:25;52.05;;;26.85;;
69900;SDS011;57183;50.930;5.406;2023-02-15T09:35:21;44.03;;;24.77;;
69900;SDS011;57183;50.930;5.406;2023-02-15T09:41:00;42.92;;;24.83;;
69900;SDS011;57183;50.930;5.406;2023-02-15T09:55:19;46.50;;;23.63;;
69900;SDS011;57183;50.930;5.406;2023-02-15T10:06:14;36.38;;;21.42;;
69900;SDS011;57183;50.930;5.406;2023-02-15T10:09:20;48.13;;;21.48;;
69900;SDS011;57183;50.930;5.406;2023-02-15T10:25:22;34.58;;;19.08;;
69900;SDS011;57183;50.930;5.406;2023-02-15T10:27:59;32.70;;;19.00;;
69900;SDS011;57183;50.930;5.406;2023-02-15T10:30:40;35.78;;;19.48;;
69900;SDS011;57183;50.930;5.406;2023-02-15T10:33:24;29.45;;;18.42;;
69900;SDS011;57183;50.930;5.406;2023-02-15T10:41:25;34.58;;;19.23;;
69900;SDS011;57183;50.930;5.406;2023-02-15T10:44:33;32.33;;;18.10;;
69900;SDS011;57183;50.930;5.406;2023-02-15T10:55:06;37.20;;;19.33;;
69900;SDS011;57183;50.930;5.406;2023-02-15T11:00:41;32.28;;;19.20;;
69900;SDS011;57183;50.930;5.406;2023-02-15T11:06:07;29.52;;;16.50;;
69900;SDS011;57183;50.930;5.406;2023-02-15T11:08:38;28.40;;;16.42;;
69900;SDS011;57183;50.930;5.406;2023-02-15T11:11:19;25.85;;;16.35;;
69900;SDS011;57183;50.930;5.406;2023-02-15T11:13:48;29.08;;;14.95;;
69900;SDS011;57183;50.930;5.406;2023-02-15T11:16:21;32.63;;;17.48;;
69900;SDS011;57183;50.930;5.406;2023-02-15T11:18:55;29.20;;;15.88;;
69900;SDS011;57183;50.930;5.406;2023-02-15T11:21:31;31.13;;;16.60;;
69900;SDS011;57183;50.930;5.406;2023-02-15T11:24:10;32.28;;;18.05;;
69900;SDS011;57183;50.930;5.406;2023-02-15T11:26:53;19.70;;;11.25;;
69900;SDS011;57183;50.930;5.406;2023-02-15T11:29:27;30.38;;;15.57;;
69900;SDS011;57183;50.930;5.406;2023-02-15T11:37:53;27.25;;;16.95;;
69900;SDS011;57183;50.930;5.406;2023-02-15T11:40:26;30.42;;;16.52;;
69900;SDS011;57183;50.930;5.406;2023-02-15T11:43:00;31.50;;;18.70;;
69900;SDS011;57183;50.930;5.406;2023-02-15T11:45:31;30.92;;;18.05;;
69900;SDS011;57183;50.930;5.406;2023-02-15T11:47:59;31.88;;;18.92;;
69900;SDS011;57183;50.930;5.406;2023-02-15T11:50:30;33.80;;;19.27;;
69900;SDS011;57183;50.930;5.406;2023-02-15T11:53:04;31.50;;;19.55;;
69900;SDS011;57183;50.930;5.406;2023-02-15T11:55:35;33.88;;;19.15;;
69900;SDS011;57183;50.930;5.406;2023-02-15T11:58:06;33.03;;;18.23;;
69900;SDS011;57183;50.930;5.406;2023-02-15T12:00:47;33.08;;;16.73;;
69900;SDS011;57183;50.930;5.406;2023-02-15T12:03:19;31.83;;;17.83;;
69900;SDS011;57183;50.930;5.406;2023-02-15T12:05:50;33.25;;;17.95;;
69900;SDS011;57183;50.930;5.406;2023-02-15T12:08:22;31.92;;;17.17;;
69900;SDS011;57183;50.930;5.406;2023-02-15T12:11:00;28.23;;;16.50;;
69900;SDS011;57183;50.930;5.406;2023-02-15T12:13:28;34.85;;;18.70;;
69900;SDS011;57183;50.930;5.406;2023-02-15T12:15:55;28.38;;;16.65;;
69900;SDS011;57183;50.930;5.406;2023-02-15T12:18:31;30.92;;;16.67;;
69900;SDS011;57183;50.930;5.406;2023-02-15T12:21:03;25.80;;;15.90;;
69900;SDS011;57183;50.930;5.406;2023-02-15T12:23:39;30.70;;;16.08;;
69900;SDS011;57183;50.930;5.406;2023-02-15T12:26:23;28.35;;;16.10;;
69900;SDS011;57183;50.930;5.406;2023-02-15T12:28:54;29.73;;;17.00;;
69900;SDS011;57183;50.930;5.406;2023-02-15T12:31:27;30.63;;;16.40;;
69900;SDS011;57183;50.930;5.406;2023-02-15T12:33:57;29.40;;;16.70;;
69900;SDS011;57183;50.930;5.406;2023-02-15T12:36:32;26.67;;;17.33;;
69900;SDS011;57183;50.930;5.406;2023-02-15T12:41:38;32.20;;;17.95;;
69900;SDS011;57183;50.930;5.406;2023-02-15T12:44:15;29.27;;;16.90;;
69900;SDS011;57183;50.930;5.406;2023-02-15T12:49:25;27.85;;;17.23;;
69900;SDS011;57183;50.930;5.406;2023-02-15T12:51:53;30.48;;;18.20;;
69900;SDS011;57183;50.930;5.406;2023-02-15T12:54:31;31.45;;;17.00;;
69900;SDS011;57183;50.930;5.406;2023-02-15T12:59:53;28.95;;;17.23;;
69900;SDS011;57183;50.930;5.406;2023-02-15T13:02:25;29.95;;;17.42;;
69900;SDS011;57183;50.930;5.406;2023-02-15T13:05:10;33.35;;;17.02;;
69900;SDS011;57183;50.930;5.406;2023-02-15T13:07:44;33.67;;;18.42;;
69900;SDS011;57183;50.930;5.406;2023-02-15T13:10:25;31.52;;;17.83;;
69900;SDS011;57183;50.930;5.406;2023-02-15T13:12:51;30.55;;;16.70;;
69900;SDS011;57183;50.930;5.406;2023-02-15T13:15:26;27.73;;;17.27;;
69900;SDS011;57183;50.930;5.406;2023-02-15T13:17:59;27.88;;;17.20;;
69900;SDS011;57183;50.930;5.406;2023-02-15T13:20:27;29.42;;;17.00;;
69900;SDS011;57183;50.930;5.406;2023-02-15T13:23:02;31.48;;;17.40;;
69900;SDS011;57183;50.930;5.406;2023-02-15T13:25:32;32.58;;;17.50;;
69900;SDS011;57183;50.930;5.406;2023-02-15T13:28:10;30.65;;;17.80;;
69900;SDS011;57183;50.930;5.406;2023-02-15T13:30:42;32.15;;;18.38;;
69900;SDS011;57183;50.930;5.406;2023-02-15T13:33:14;34.03;;;19.17;;
69900;SDS011;57183;50.930;5.406;2023-02-15T13:35:51;34.33;;;18.13;;
69900;SDS011;57183;50.930;5.406;2023-02-15T13:38:46;30.98;;;18.92;;
69900;SDS011;57183;50.930;5.406;2023-02-15T13:41:20;28.80;;;17.30;;
69900;SDS011;57183;50.930;5.406;2023-02-15T13:55:53;27.38;;;16.67;;
69900;SDS011;57183;50.930;5.406;2023-02-15T14:07:26;28.13;;;17.13;;
69900;SDS011;57183;50.930;5.406;2023-02-15T14:13:05;28.48;;;17.52;;
69900;SDS011;57183;50.930;5.406;2023-02-15T14:16:05;26.02;;;16.70;;
69900;SDS011;57183;50.930;5.406;2023-02-15T14:21:57;31.17;;;17.42;;
69900;SDS011;57183;50.930;5.406;2023-02-15T14:24:41;25.27;;;16.33;;
69900;SDS011;57183;50.930;5.406;2023-02-15T14:27:39;33.78;;;17.73;;
69900;SDS011;57183;50.930;5.406;2023-02-15T14:30:24;26.42;;;14.95;;
69900;SDS011;57183;50.930;5.406;2023-02-15T14:35:54;31.92;;;17.42;;
69900;SDS011;57183;50.930;5.406;2023-02-15T14:41:18;31.50;;;16.25;;
69900;SDS011;57183;50.930;5.406;2023-02-15T14:44:15;30.63;;;17.83;;
69900;SDS011;57183;50.930;5.406;2023-02-15T14:47:22;30.08;;;16.45;;
69900;SDS011;57183;50.930;5.406;2023-02-15T14:49:55;32.17;;;17.02;;
69900;SDS011;57183;50.930;5.406;2023-02-15T14:52:20;26.05;;;16.50;;
69900;SDS011;57183;50.930;5.406;2023-02-15T14:59:43;30.48;;;16.98;;
69900;SDS011;57183;50.930;5.406;2023-02-15T15:05:16;34.08;;;18.48;;
69900;SDS011;57183;50.930;5.406;2023-02-15T15:07:53;32.10;;;18.83;;
69900;SDS011;57183;50.930;5.406;2023-02-15T15:12:47;30.38;;;18.63;;
69900;SDS011;57183;50.930;5.406;2023-02-15T15:15:45;29.63;;;16.45;;
69900;SDS011;57183;50.930;5.406;2023-02-15T15:18:42;29.88;;;17.65;;
69900;SDS011;57183;50.930;5.406;2023-02-15T15:21:09;36.20;;;18.55;;
69900;SDS011;57183;50.930;5.406;2023-02-15T15:23:42;30.42;;;18.73;;
69900;SDS011;57183;50.930;5.406;2023-02-15T15:26:28;27.90;;;17.65;;
69900;SDS011;57183;50.930;5.406;2023-02-15T15:28:59;30.00;;;19.23;;
69900;SDS011;57183;50.930;5.406;2023-02-15T15:42:42;34.97;;;19.83;;
69900;SDS011;57183;50.930;5.406;2023-02-15T15:50:47;32.83;;;18.95;;
69900;SDS011;57183;50.930;5.406;2023-02-15T15:53:28;31.85;;;19.67;;
69900;SDS011;57183;50.930;5.406;2023-02-15T15:56:03;30.33;;;19.80;;
69900;SDS011;57183;50.930;5.406;2023-02-15T15:58:31;41.90;;;21.13;;
69900;SDS011;57183;50.930;5.406;2023-02-15T16:01:09;35.40;;;21.17;;
69900;SDS011;57183;50.930;5.406;2023-02-15T16:03:36;36.38;;;20.67;;
69900;SDS011;57183;50.930;5.406;2023-02-15T16:06:02;30.52;;;20.38;;
69900;SDS011;57183;50.930;5.406;2023-02-15T16:08:29;35.35;;;20.70;;
69900;SDS011;57183;50.930;5.406;2023-02-15T16:11:23;36.30;;;21.38;;
69900;SDS011;57183;50.930;5.406;2023-02-15T16:13:50;32.88;;;20.77;;
69900;SDS011;57183;50.930;5.406;2023-02-15T16:16:21;38.50;;;21.17;;
69900;SDS011;57183;50.930;5.406;2023-02-15T16:18:49;34.92;;;21.83;;
69900;SDS011;57183;50.930;5.406;2023-02-15T16:21:17;38.42;;;22.00;;
69900;SDS011;57183;50.930;5.406;2023-02-15T16:23:50;40.75;;;21.55;;
69900;SDS011;57183;50.930;5.406;2023-02-15T16:26:48;36.38;;;20.52;;
69900;SDS011;57183;50.930;5.406;2023-02-15T16:29:29;35.63;;;21.10;;
69900;SDS011;57183;50.930;5.406;2023-02-15T16:32:00;38.40;;;21.52;;
69900;SDS011;57183;50.930;5.406;2023-02-15T16:34:31;37.10;;;21.48;;
69900;SDS011;57183;50.930;5.406;2023-02-15T16:39:43;35.22;;;20.63;;
69900;SDS011;57183;50.930;5.406;2023-02-15T16:42:13;40.40;;;22.25;;
69900;SDS011;57183;50.930;5.406;2023-02-15T16:44:40;38.17;;;21.42;;
69900;SDS011;57183;50.930;5.406;2023-02-15T16:47:16;42.20;;;19.77;;
69900;SDS011;57183;50.930;5.406;2023-02-15T16:49:47;41.72;;;23.88;;
69900;SDS011;57183;50.930;5.406;2023-02-15T16:52:19;43.42;;;22.98;;
69900;SDS011;57183;50.930;5.406;2023-02-15T16:54:47;37.55;;;22.73;;
69900;SDS011;57183;50.930;5.406;2023-02-15T16:57:21;39.13;;;22.85;;
69900;SDS011;57183;50.930;5.406;2023-02-15T16:59:51;40.35;;;24.25;;
69900;SDS011;57183;50.930;5.406;2023-02-15T17:02:22;41.58;;;23.77;;
69900;SDS011;57183;50.930;5.406;2023-02-15T17:07:30;41.58;;;22.75;;
69900;SDS011;57183;50.930;5.406;2023-02-15T17:09:58;45.03;;;23.33;;
69900;SDS011;57183;50.930;5.406;2023-02-15T17:15:44;37.90;;;22.83;;
69900;SDS011;57183;50.930;5.406;2023-02-15T17:18:23;46.33;;;23.25;;
69900;SDS011;57183;50.930;5.406;2023-02-15T17:20:52;41.67;;;24.05;;
69900;SDS011;57183;50.930;5.406;2023-02-15T17:23:32;39.92;;;22.90;;
69900;SDS011;57183;50.930;5.406;2023-02-15T17:26:26;40.08;;;23.55;;
69900;SDS011;57183;50.930;5.406;2023-02-15T17:28:59;40.40;;;23.98;;
69900;SDS011;57183;50.930;5.406;2023-02-15T17:31:29;43.60;;;23.80;;
69900;SDS011;57183;50.930;5.406;2023-02-15T17:33:56;48.17;;;23.73;;
69900;SDS011;57183;50.930;5.406;2023-02-15T17:36:27;43.67;;;23.95;;
69900;SDS011;57183;50.930;5.406;2023-02-15T17:41:23;42.85;;;23.52;;
69900;SDS011;57183;50.930;5.406;2023-02-15T17:43:52;38.60;;;21.88;;
69900;SDS011;57183;50.930;5.406;2023-02-15T17:46:18;42.13;;;22.60;;
69900;SDS011;57183;50.930;5.406;2023-02-15T17:48:47;41.10;;;23.17;;
69900;SDS011;57183;50.930;5.406;2023-02-15T17:51:15;39.50;;;21.83;;
69900;SDS011;57183;50.930;5.406;2023-02-15T17:53:42;42.47;;;22.98;;
69900;SDS011;57183;50.930;5.406;2023-02-15T17:56:27;27.75;;;15.93;;
69900;SDS011;57183;50.930;5.406;2023-02-15T17:58:52;44.45;;;23.10;;
69900;SDS011;57183;50.930;5.406;2023-02-15T18:01:18;43.30;;;23.70;;
69900;SDS011;57183;50.930;5.406;2023-02-15T18:04:04;38.67;;;23.83;;
69900;SDS011;57183;50.930;5.406;2023-02-15T18:06:51;47.20;;;26.58;;
69900;SDS011;57183;50.930;5.406;2023-02-15T18:09:35;45.78;;;24.77;;
69900;SDS011;57183;50.930;5.406;2023-02-15T18:14:50;47.28;;;23.90;;
69900;SDS011;57183;50.930;5.406;2023-02-15T18:17:29;44.33;;;24.38;;
69900;SDS011;57183;50.930;5.406;2023-02-15T18:20:17;42.22;;;22.05;;
69900;SDS011;57183;50.930;5.406;2023-02-15T18:22:45;39.45;;;24.98;;
69900;SDS011;57183;50.930;5.406;2023-02-15T18:25:15;49.17;;;25.70;;
69900;SDS011;57183;50.930;5.406;2023-02-15T18:27:42;54.72;;;28.65;;
69900;SDS011;57183;50.930;5.406;2023-02-15T18:30:12;52.88;;;26.92;;
69900;SDS011;57183;50.930;5.406;2023-02-15T18:32:43;34.42;;;19.45;;
69900;SDS011;57183;50.930;5.406;2023-02-15T18:35:18;45.05;;;26.05;;
69900;SDS011;57183;50.930;5.406;2023-02-15T18:37:45;50.10;;;26.48;;
69900;SDS011;57183;50.930;5.406;2023-02-15T18:40:15;44.03;;;24.65;;
69900;SDS011;57183;50.930;5.406;2023-02-15T18:42:43;45.80;;;24.77;;
69900;SDS011;57183;50.930;5.406;2023-02-15T18:47:38;53.15;;;27.40;;
69900;SDS011;57183;50.930;5.406;2023-02-15T18:50:05;51.38;;;29.42;;
69900;SDS011;57183;50.930;5.406;2023-02-15T18:52:32;51.22;;;28.08;;
69900;SDS011;57183;50.930;5.406;2023-02-15T18:55:02;53.25;;;28.23;;
69900;SDS011;57183;50.930;5.406;2023-02-15T18:57:32;55.97;;;31.10;;
69900;SDS011;57183;50.930;5.406;2023-02-15T18:59:58;57.75;;;29.88;;
69900;SDS011;57183;50.930;5.406;2023-02-15T19:02:23;51.20;;;30.65;;
69900;SDS011;57183;50.930;5.406;2023-02-15T19:04:49;50.15;;;29.45;;
69900;SDS011;57183;50.930;5.406;2023-02-15T19:07:22;55.53;;;30.65;;
69900;SDS011;57183;50.930;5.406;2023-02-15T19:09:58;52.42;;;31.10;;
69900;SDS011;57183;50.930;5.406;2023-02-15T19:12:26;54.85;;;28.67;;
69900;SDS011;57183;50.930;5.406;2023-02-15T19:14:52;61.58;;;32.50;;
69900;SDS011;57183;50.930;5.406;2023-02-15T19:17:20;55.60;;;30.27;;
69900;SDS011;57183;50.930;5.406;2023-02-15T19:19:47;62.90;;;32.80;;
69900;SDS011;57183;50.930;5.406;2023-02-15T19:22:14;55.88;;;32.65;;
69900;SDS011;57183;50.930;5.406;2023-02-15T19:24:50;59.38;;;31.50;;
69900;SDS011;57183;50.930;5.406;2023-02-15T19:27:21;49.67;;;27.77;;
69900;SDS011;57183;50.930;5.406;2023-02-15T19:30:09;42.80;;;22.52;;
69900;SDS011;57183;50.930;5.406;2023-02-15T19:32:40;51.80;;;27.83;;
69900;SDS011;57183;50.930;5.406;2023-02-15T19:35:12;46.13;;;29.35;;
69900;SDS011;57183;50.930;5.406;2023-02-15T19:37:40;51.33;;;28.85;;
69900;SDS011;57183;50.930;5.406;2023-02-15T19:40:14;54.58;;;29.48;;
69900;SDS011;57183;50.930;5.406;2023-02-15T19:42:51;59.55;;;29.77;;
69900;SDS011;57183;50.930;5.406;2023-02-15T19:45:19;53.83;;;30.05;;
69900;SDS011;57183;50.930;5.406;2023-02-15T19:47:46;57.10;;;30.00;;
69900;SDS011;57183;50.930;5.406;2023-02-15T19:50:16;55.13;;;30.50;;
69900;SDS011;57183;50.930;5.406;2023-02-15T19:52:43;51.05;;;26.17;;
69900;SDS011;57183;50.930;5.406;2023-02-15T19:55:23;53.13;;;29.58;;
69900;SDS011;57183;50.930;5.406;2023-02-15T19:57:50;53.30;;;30.13;;
69900;SDS011;57183;50.930;5.406;2023-02-15T20:00:24;56.05;;;30.13;;
69900;SDS011;57183;50.930;5.406;2023-02-15T20:02:50;56.67;;;29.60;;
69900;SDS011;57183;50.930;5.406;2023-02-15T20:05:16;47.53;;;27.63;;
69900;SDS011;57183;50.930;5.406;2023-02-15T20:07:43;52.58;;;27.95;;
69900;SDS011;57183;50.930;5.406;2023-02-15T20:10:15;52.63;;;27.67;;
69900;SDS011;57183;50.930;5.406;2023-02-15T20:12:43;55.30;;;29.25;;
69900;SDS011;57183;50.930;5.406;2023-02-15T20:15:23;55.67;;;29.52;;
69900;SDS011;57183;50.930;5.406;2023-02-15T20:17:54;52.20;;;28.23;;
69900;SDS011;57183;50.930;5.406;2023-02-15T20:20:21;47.05;;;27.55;;
69900;SDS011;57183;50.930;5.406;2023-02-15T20:22:48;49.47;;;26.95;;
69900;SDS011;57183;50.930;5.406;2023-02-15T20:25:19;50.88;;;27.45;;
69900;SDS011;57183;50.930;5.406;2023-02-15T20:27:48;48.67;;;27.17;;
69900;SDS011;57183;50.930;5.406;2023-02-15T20:30:18;52.03;;;29.52;;
69900;SDS011;57183;50.930;5.406;2023-02-15T20:32:47;51.47;;;27.10;;
69900;SDS011;57183;50.930;5.406;2023-02-15T20:35:16;54.53;;;28.48;;
69900;SDS011;57183;50.930;5.406;2023-02-15T20:37:44;49.67;;;27.92;;
69900;SDS011;57183;50.930;5.406;2023-02-15T20:40:21;47.53;;;26.05;;
69900;SDS011;57183;50.930;5.406;2023-02-15T20:42:52;50.90;;;28.77;;
69900;SDS011;57183;50.930;5.406;2023-02-15T20:45:19;50.10;;;29.75;;
69900;SDS011;57183;50.930;5.406;2023-02-15T20:47:49;50.80;;;28.35;;
69900;SDS011;57183;50.930;5.406;2023-02-15T20:50:17;44.10;;;29.88;;
69900;SDS011;57183;50.930;5.406;2023-02-15T20:52:47;54.45;;;29.48;;
69900;SDS011;57183;50.930;5.406;2023-02-15T20:55:18;56.50;;;28.90;;
69900;SDS011;57183;50.930;5.406;2023-02-15T20:57:47;50.45;;;29.27;;
69900;SDS011;57183;50.930;5.406;2023-02-15T21:00:20;52.08;;;28.67;;
69900;SDS011;57183;50.930;5.406;2023-02-15T21:02:53;51.05;;;27.63;;
69900;SDS011;57183;50.930;5.406;2023-02-15T21:05:25;51.65;;;27.85;;
69900;SDS011;57183;50.930;5.406;2023-02-15T21:07:54;54.67;;;29.27;;
69900;SDS011;57183;50.930;5.406;2023-02-15T21:10:21;51.38;;;28.98;;
69900;SDS011;57183;50.930;5.406;2023-02-15T21:12:48;55.38;;;27.75;;
69900;SDS011;57183;50.930;5.406;2023-02-15T21:15:25;53.45;;;30.88;;
69900;SDS011;57183;50.930;5.406;2023-02-15T21:18:05;56.90;;;29.20;;
69900;SDS011;57183;50.930;5.406;2023-02-15T21:20:34;45.50;;;26.92;;
69900;SDS011;57183;50.930;5.406;2023-02-15T21:23:02;42.78;;;26.58;;
69900;SDS011;57183;50.930;5.406;2023-02-15T21:25:32;59.70;;;31.42;;
69900;SDS011;57183;50.930;5.406;2023-02-15T21:28:00;59.63;;;31.67;;
69900;SDS011;57183;50.930;5.406;2023-02-15T21:30:26;51.88;;;30.40;;
69900;SDS011;57183;50.930;5.406;2023-02-15T21:32:52;58.80;;;31.20;;
69900;SDS011;57183;50.930;5.406;2023-02-15T21:35:18;56.85;;;29.90;;
69900;SDS011;57183;50.930;5.406;2023-02-15T21:37:45;50.17;;;29.60;;
69900;SDS011;57183;50.930;5.406;2023-02-15T21:40:25;52.75;;;29.40;;
69900;SDS011;57183;50.930;5.406;2023-02-15T21:42:53;52.72;;;30.95;;
69900;SDS011;57183;50.930;5.406;2023-02-15T21:45:38;50.50;;;28.98;;
69900;SDS011;57183;50.930;5.406;2023-02-15T21:48:22;51.85;;;29.35;;
69900;SDS011;57183;50.930;5.406;2023-02-15T21:50:48;55.20;;;28.70;;
69900;SDS011;57183;50.930;5.406;2023-02-15T21:53:34;56.50;;;28.73;;
69900;SDS011;57183;50.930;5.406;2023-02-15T21:56:09;49.25;;;29.25;;
69900;SDS011;57183;50.930;5.406;2023-02-15T21:58:43;54.55;;;28.83;;
69900;SDS011;57183;50.930;5.406;2023-02-15T22:01:14;54.83;;;29.73;;
69900;SDS011;57183;50.930;5.406;2023-02-15T22:03:42;50.03;;;28.48;;
69900;SDS011;57183;50.930;5.406;2023-02-15T22:06:08;73.57;;;37.13;;
69900;SDS011;57183;50.930;5.406;2023-02-15T22:08:37;60.05;;;32.08;;
69900;SDS011;57183;50.930;5.406;2023-02-15T22:11:07;53.03;;;30.48;;
69900;SDS011;57183;50.930;5.406;2023-02-15T22:13:36;55.83;;;29.25;;
69900;SDS011;57183;50.930;5.406;2023-02-15T22:16:02;53.05;;;30.27;;
69900;SDS011;57183;50.930;5.406;2023-02-15T22:18:29;51.85;;;29.48;;
69900;SDS011;57183;50.930;5.406;2023-02-15T22:20:57;52.25;;;29.88;;
69900;SDS011;57183;50.930;5.406;2023-02-15T22:23:23;54.70;;;30.25;;
69900;SDS011;57183;50.930;5.406;2023-02-15T22:25:57;57.38;;;30.83;;
69900;SDS011;57183;50.930;5.406;2023-02-15T22:28:27;58.05;;;31.70;;
69900;SDS011;57183;50.930;5.406;2023-02-15T22:31:14;65.03;;;34.47;;
69900;SDS011;57183;50.930;5.406;2023-02-15T22:33:44;61.15;;;31.88;;
69900;SDS011;57183;50.930;5.406;2023-02-15T22:39:02;60.20;;;32.03;;
69900;SDS011;57183;50.930;5.406;2023-02-15T22:41:28;62.78;;;32.85;;
69900;SDS011;57183;50.930;5.406;2023-02-15T22:43:56;69.10;;;35.60;;
69900;SDS011;57183;50.930;5.406;2023-02-15T22:46:23;68.68;;;36.83;;
69900;SDS011;57183;50.930;5.406;2023-02-15T22:48:50;66.75;;;35.85;;
69900;SDS011;57183;50.930;5.406;2023-02-15T22:51:17;65.15;;;33.42;;
69900;SDS011;57183;50.930;5.406;2023-02-15T22:53:45;65.30;;;32.10;;
69900;SDS011;57183;50.930;5.406;2023-02-15T22:59:18;57.80;;;32.00;;
69900;SDS011;57183;50.930;5.406;2023-02-15T23:01:52;70.05;;;36.53;;
69900;SDS011;57183;50.930;5.406;2023-02-15T23:04:19;79.40;;;39.22;;
69900;SDS011;57183;50.930;5.406;2023-02-15T23:06:46;60.25;;;29.98;;
69900;SDS011;57183;50.930;5.406;2023-02-15T23:09:12;62.17;;;31.98;;
69900;SDS011;57183;50.930;5.406;2023-02-15T23:11:38;53.45;;;31.35;;
69900;SDS011;57183;50.930;5.406;2023-02-15T23:14:05;60.95;;;34.35;;
69900;SDS011;57183;50.930;5.406;2023-02-15T23:16:30;63.70;;;34.92;;
69900;SDS011;57183;50.930;5.406;2023-02-15T23:18:58;63.30;;;30.60;;
69900;SDS011;57183;50.930;5.406;2023-02-15T23:21:28;57.03;;;31.00;;
69900;SDS011;57183;50.930;5.406;2023-02-15T23:24:16;61.60;;;32.67;;
69900;SDS011;57183;50.930;5.406;2023-02-15T23:26:53;54.50;;;29.73;;
69900;SDS011;57183;50.930;5.406;2023-02-15T23:29:39;55.45;;;30.80;;
69900;SDS011;57183;50.930;5.406;2023-02-15T23:32:07;60.00;;;31.20;;
69900;SDS011;57183;50.930;5.406;2023-02-15T23:34:37;60.40;;;31.35;;
69900;SDS011;57183;50.930;5.406;2023-02-15T23:37:03;56.20;;;30.13;;
69900;SDS011;57183;50.930;5.406;2023-02-15T23:39:29;56.00;;;30.98;;
69900;SDS011;57183;50.930;5.406;2023-02-15T23:42:24;52.90;;;29.85;;
69900;SDS011;57183;50.930;5.406;2023-02-15T23:44:52;57.55;;;31.40;;
69900;SDS011;57183;50.930;5.406;2023-02-15T23:47:19;55.47;;;31.40;;
69900;SDS011;57183;50.930;5.406;2023-02-15T23:50:20;55.55;;;31.00;;
69900;SDS011;57183;50.930;5.406;2023-02-15T23:52:51;55.45;;;29.05;;
69900;SDS011;57183;50.930;5.406;2023-02-15T23:55:17;67.18;;;35.00;;
69900;SDS011;57183;50.930;5.406;2023-02-15T23:57:44;62.60;;;33.50;;
